Time;durP1;ratioP1;P1;durP2;ratioP2;P2;SDS_P1;SDS_P2;PMS_P1;PMS_P2;Temp;Humidity;BMP_temperature;BMP_pressure;BME280_temperature;BME280_humidity;BME280_pressure;Samples;Min_cycle;Max_cycle;Signal;HPM_P1;HPM_P2
2023/03/05 00:00:30;;;;;;;;;16.40;16.40;;;;;;;;5230327;28;8862;-90
2023/03/05 00:03:01;;;;;;;;;19.20;18.60;;;;;;;;5229910;28;8846;-89
2023/03/05 00:05:33;;;;;;;;;14.40;13.60;;;;;;;;5200393;28;8790;-89
2023/03/05 00:08:05;;;;;;;;;16.00;16.00;;;;;;;;5233765;28;8798;-79
2023/03/05 00:10:36;;;;;;;;;27.00;27.00;;;;;;;;5248238;28;8925;-80
2023/03/05 00:13:07;;;;;;;;;25.20;25.20;;;;;;;;5212629;28;8792;-80
2023/03/05 00:15:41;;;;;;;;;20.60;20.60;;;;;;;;5213014;28;8777;-81
2023/03/05 00:18:13;;;;;;;;;16.60;16.60;;;;;;;;5247145;28;8899;-79
2023/03/05 00:20:45;;;;;;;;;17.40;17.40;;;;;;;;5229483;28;8804;-81
2023/03/05 00:23:34;;;;;;;;;27.80;27.80;;;;;;;;5215139;28;8848;-82
2023/03/05 00:26:06;;;;;;;;;15.20;15.00;;;;;;;;5236848;28;8813;-82
2023/03/05 00:28:37;;;;;;;;;22.20;19.40;;;;;;;;5233535;28;9695;-79
2023/03/05 00:31:09;;;;;;;;;15.60;15.60;;;;;;;;5226403;28;8804;-79
2023/03/05 00:33:40;;;;;;;;;21.60;20.40;;;;;;;;5229160;28;8785;-78
2023/03/05 00:36:11;;;;;;;;;37.60;36.60;;;;;;;;5229073;28;8795;-78
2023/03/05 00:38:42;;;;;;;;;26.20;25.80;;;;;;;;5212591;28;9573;-78
2023/03/05 00:41:13;;;;;;;;;29.00;29.00;;;;;;;;5228961;28;8784;-81
2023/03/05 00:44:02;;;;;;;;;13.80;13.80;;;;;;;;5228912;28;8804;-81
2023/03/05 00:46:34;;;;;;;;;9.00;8.80;;;;;;;;5207506;28;8875;-81
2023/03/05 00:49:05;;;;;;;;;14.80;14.00;;;;;;;;5233095;28;8824;-82
2023/03/05 00:51:36;;;;;;;;;16.40;16.40;;;;;;;;5221623;28;8843;-81
2023/03/05 00:54:07;;;;;;;;;26.80;26.80;;;;;;;;5211858;28;8867;-80
2023/03/05 00:56:38;;;;;;;;;23.40;23.40;;;;;;;;5212137;28;8792;-81
2023/03/05 00:59:10;;;;;;;;;22.00;22.00;;;;;;;;5246586;28;8919;-81
2023/03/05 01:01:41;;;;;;;;;34.00;34.00;;;;;;;;5229933;28;8788;-81
2023/03/05 01:04:12;;;;;;;;;74.40;62.20;;;;;;;;5228599;28;8800;-80
2023/03/05 01:06:45;;;;;;;;;47.60;45.20;;;;;;;;5212127;28;8804;-81
2023/03/05 01:09:18;;;;;;;;;44.60;41.80;;;;;;;;5248408;28;8785;-80
2023/03/05 01:11:49;;;;;;;;;31.00;28.80;;;;;;;;5219050;28;8793;-77
2023/03/05 01:14:21;;;;;;;;;41.80;41.00;;;;;;;;5228545;28;8898;-83
2023/03/05 01:16:52;;;;;;;;;32.20;32.20;;;;;;;;5228262;28;8846;-82
2023/03/05 01:19:23;;;;;;;;;46.20;36.80;;;;;;;;5228426;28;8765;-82
2023/03/05 01:21:54;;;;;;;;;44.20;42.20;;;;;;;;5211912;28;9625;-82
2023/03/05 01:24:26;;;;;;;;;32.80;32.80;;;;;;;;5211462;28;8856;-82
2023/03/05 01:26:57;;;;;;;;;22.60;21.60;;;;;;;;5227681;28;8879;-81
2023/03/05 01:29:29;;;;;;;;;25.80;24.80;;;;;;;;5232573;28;9497;-80
2023/03/05 01:32:01;;;;;;;;;24.60;24.40;;;;;;;;5232989;28;8931;-79
2023/03/05 01:34:32;;;;;;;;;21.00;21.00;;;;;;;;5211678;28;8931;-79
2023/03/05 01:37:03;;;;;;;;;24.80;24.60;;;;;;;;5228080;28;9678;-79
2023/03/05 01:39:53;;;;;;;;;36.60;33.60;;;;;;;;5214429;28;8854;-78
2023/03/05 01:42:25;;;;;;;;;23.40;22.80;;;;;;;;5211421;28;8785;-83
2023/03/05 01:45:08;;;;;;;;;50.00;43.40;;;;;;;;5227817;28;8809;-81
2023/03/05 01:47:40;;;;;;;;;36.40;34.80;;;;;;;;5207411;28;8860;-83
2023/03/05 01:50:30;;;;;;;;;25.60;24.20;;;;;;;;5193680;28;8770;-83
2023/03/05 01:53:03;;;;;;;;;25.20;25.20;;;;;;;;5196409;28;8802;-82
2023/03/05 01:55:53;;;;;;;;;31.20;31.20;;;;;;;;5245949;28;9520;-78
2023/03/05 01:58:43;;;;;;;;;18.20;18.20;;;;;;;;5214007;28;9620;-79
2023/03/05 02:01:15;;;;;;;;;16.60;15.40;;;;;;;;5227986;28;8781;-80
2023/03/05 02:03:47;;;;;;;;;36.40;34.40;;;;;;;;5211385;28;8889;-80
2023/03/05 02:06:19;;;;;;;;;35.60;25.80;;;;;;;;5213660;28;8883;-80
2023/03/05 02:08:51;;;;;;;;;32.80;27.80;;;;;;;;5215175;28;8784;-80
2023/03/05 02:11:22;;;;;;;;;18.00;17.60;;;;;;;;5215514;28;8850;-81
2023/03/05 02:14:11;;;;;;;;;32.20;31.20;;;;;;;;5231874;28;8806;-81
2023/03/05 02:16:42;;;;;;;;;45.40;38.40;;;;;;;;5231752;28;8788;-81
2023/03/05 02:19:46;;;;;;;;;23.80;23.80;;;;;;;;5217771;28;8800;-80
2023/03/05 02:22:18;;;;;;;;;13.20;11.40;;;;;;;;5232604;28;8807;-81
2023/03/05 02:24:50;;;;;;;;;16.40;16.40;;;;;;;;5236076;28;8799;-81
2023/03/05 02:27:23;;;;;;;;;11.60;11.60;;;;;;;;5251800;28;8813;-82
2023/03/05 02:29:55;;;;;;;;;27.80;26.80;;;;;;;;5231883;28;8830;-80
2023/03/05 02:32:44;;;;;;;;;15.20;14.80;;;;;;;;5249774;28;8776;-79
2023/03/05 02:35:16;;;;;;;;;8.80;7.80;;;;;;;;5231696;28;8811;-80
2023/03/05 02:38:05;;;;;;;;;14.00;14.00;;;;;;;;5231511;28;8815;-81
2023/03/05 02:40:36;;;;;;;;;20.40;19.40;;;;;;;;5231400;28;8773;-80
2023/03/05 02:43:09;;;;;;;;;16.20;16.20;;;;;;;;5239499;28;8818;-83
2023/03/05 02:45:40;;;;;;;;;15.20;15.20;;;;;;;;5235499;28;9533;-80
2023/03/05 02:48:12;;;;;;;;;19.60;19.00;;;;;;;;5243604;28;8792;-75
2023/03/05 02:50:44;;;;;;;;;16.40;16.40;;;;;;;;5231177;28;8828;-76
2023/03/05 02:53:15;;;;;;;;;33.20;33.20;;;;;;;;5230949;28;8831;-80
2023/03/05 02:55:47;;;;;;;;;20.40;18.00;;;;;;;;5230248;28;8812;-74
2023/03/05 02:58:19;;;;;;;;;13.20;11.60;;;;;;;;5230921;28;9543;-74
2023/03/05 03:00:50;;;;;;;;;15.20;15.00;;;;;;;;5212672;28;8822;-75
2023/03/05 03:03:22;;;;;;;;;14.20;14.20;;;;;;;;5250183;28;8818;-75
2023/03/05 03:05:53;;;;;;;;;31.80;31.20;;;;;;;;5269626;28;9489;-75
2023/03/05 03:08:24;;;;;;;;;20.40;20.20;;;;;;;;5240780;28;9562;-74
2023/03/05 03:10:55;;;;;;;;;18.00;17.00;;;;;;;;5230906;28;8792;-73
2023/03/05 03:13:27;;;;;;;;;17.00;17.00;;;;;;;;5213888;28;8823;-73
2023/03/05 03:16:17;;;;;;;;;33.20;32.40;;;;;;;;5248112;28;8793;-75
2023/03/05 03:18:48;;;;;;;;;20.80;19.60;;;;;;;;5197685;28;8815;-75
2023/03/05 03:21:21;;;;;;;;;7.00;6.60;;;;;;;;5213978;28;8785;-75
2023/03/05 03:23:52;;;;;;;;;10.60;10.60;;;;;;;;5247797;28;8919;-76
2023/03/05 03:26:42;;;;;;;;;14.40;12.00;;;;;;;;5230342;28;8781;-74
2023/03/05 03:29:13;;;;;;;;;15.25;15.25;;;;;;;;5226489;28;8869;-75
2023/03/05 03:31:44;;;;;;;;;10.00;10.00;;;;;;;;5247807;28;8859;-74
2023/03/05 03:34:16;;;;;;;;;14.00;14.00;;;;;;;;5247931;28;9709;-74
2023/03/05 03:36:47;;;;;;;;;10.60;10.60;;;;;;;;5229742;28;8797;-74
2023/03/05 03:39:19;;;;;;;;;36.40;35.20;;;;;;;;5230208;28;8788;-74
2023/03/05 03:41:51;;;;;;;;;14.20;11.80;;;;;;;;5209373;28;8814;-73
2023/03/05 03:44:22;;;;;;;;;11.20;11.20;;;;;;;;5247701;28;8820;-75
2023/03/05 03:47:11;;;;;;;;;5.80;5.80;;;;;;;;5248295;28;8769;-74
2023/03/05 03:49:42;;;;;;;;;8.00;8.00;;;;;;;;5250397;28;8821;-74
2023/03/05 03:52:13;;;;;;;;;11.20;11.20;;;;;;;;5247584;28;8815;-77
2023/03/05 03:54:44;;;;;;;;;15.40;15.40;;;;;;;;5199085;28;8789;-72
2023/03/05 03:57:16;;;;;;;;;12.20;12.20;;;;;;;;5247292;28;8823;-77
2023/03/05 03:59:49;;;;;;;;;8.00;7.20;;;;;;;;5212874;28;8809;-76
2023/03/05 04:02:20;;;;;;;;;4.60;4.40;;;;;;;;5251304;28;8797;-72
2023/03/05 04:04:51;;;;;;;;;9.80;9.80;;;;;;;;5248548;28;8875;-72
2023/03/05 04:07:40;;;;;;;;;15.20;13.00;;;;;;;;5229671;28;8797;-72
2023/03/05 04:10:29;;;;;;;;;18.00;17.00;;;;;;;;5232510;28;8773;-73
2023/03/05 04:13:00;;;;;;;;;14.80;14.80;;;;;;;;5195120;28;8830;-72
2023/03/05 04:15:34;;;;;;;;;8.20;7.60;;;;;;;;5211914;28;8785;-72
2023/03/05 04:18:05;;;;;;;;;12.20;12.20;;;;;;;;5212651;28;9015;-73
2023/03/05 04:20:54;;;;;;;;;10.40;9.20;;;;;;;;5215175;28;8857;-73
2023/03/05 04:23:25;;;;;;;;;9.40;9.40;;;;;;;;5242244;28;8850;-74
2023/03/05 04:25:56;;;;;;;;;8.20;8.20;;;;;;;;5250107;28;8921;-74
2023/03/05 04:28:27;;;;;;;;;57.20;50.60;;;;;;;;5230913;28;8803;-79
2023/03/05 04:30:59;;;;;;;;;54.20;48.60;;;;;;;;5243435;28;8793;-79
2023/03/05 04:33:30;;;;;;;;;18.00;17.80;;;;;;;;5247168;28;8814;-74
2023/03/05 04:36:01;;;;;;;;;14.00;14.00;;;;;;;;5246843;28;8777;-75
2023/03/05 04:38:32;;;;;;;;;16.20;15.60;;;;;;;;5212376;28;9531;-75
2023/03/05 04:41:03;;;;;;;;;10.00;9.80;;;;;;;;5246584;28;8820;-73
2023/03/05 04:43:34;;;;;;;;;11.60;11.60;;;;;;;;5203368;28;8837;-75
2023/03/05 04:46:08;;;;;;;;;10.80;10.80;;;;;;;;5249830;28;8778;-75
2023/03/05 04:48:57;;;;;;;;;8.60;8.60;;;;;;;;5217512;28;8808;-71
2023/03/05 04:51:28;;;;;;;;;17.00;17.00;;;;;;;;5247054;28;8795;-70
2023/03/05 04:53:59;;;;;;;;;12.00;12.00;;;;;;;;5238099;28;8820;-71
2023/03/05 04:56:30;;;;;;;;;14.00;12.60;;;;;;;;5246397;28;8796;-71
2023/03/05 04:59:01;;;;;;;;;25.60;24.80;;;;;;;;5206594;28;8942;-70
2023/03/05 05:01:34;;;;;;;;;20.00;19.00;;;;;;;;5222868;28;9530;-71
2023/03/05 05:04:08;;;;;;;;;7.20;7.20;;;;;;;;5173997;28;8864;-73
2023/03/05 05:06:39;;;;;;;;;11.00;11.00;;;;;;;;5247299;28;9506;-71
2023/03/05 05:09:10;;;;;;;;;16.40;16.00;;;;;;;;5245151;28;8789;-70
2023/03/05 05:11:41;;;;;;;;;18.00;17.00;;;;;;;;5226690;28;8784;-71
2023/03/05 05:14:12;;;;;;;;;22.80;19.60;;;;;;;;5215030;28;12246;-72
2023/03/05 05:16:43;;;;;;;;;22.80;20.40;;;;;;;;5244649;28;8789;-72
2023/03/05 05:19:14;;;;;;;;;14.60;12.60;;;;;;;;5244256;28;8901;-74
2023/03/05 05:22:04;;;;;;;;;12.40;12.40;;;;;;;;5248656;28;8798;-73
2023/03/05 05:24:35;;;;;;;;;8.00;8.00;;;;;;;;5246871;28;9986;-72
2023/03/05 05:27:06;;;;;;;;;7.20;7.20;;;;;;;;5264652;28;9619;-74
2023/03/05 05:29:37;;;;;;;;;14.00;14.00;;;;;;;;5256571;28;8811;-73
2023/03/05 05:32:08;;;;;;;;;27.20;24.00;;;;;;;;5210085;28;8804;-76
2023/03/05 05:34:39;;;;;;;;;13.00;13.00;;;;;;;;5232377;28;8808;-75
2023/03/05 05:37:10;;;;;;;;;12.50;11.75;;;;;;;;5213941;28;8822;-76
2023/03/05 05:39:41;;;;;;;;;15.20;13.60;;;;;;;;5244971;28;11131;-78
2023/03/05 05:42:12;;;;;;;;;7.60;7.60;;;;;;;;5223494;28;8805;-75
2023/03/05 05:44:44;;;;;;;;;11.50;11.00;;;;;;;;5249893;28;8835;-73
2023/03/05 05:47:15;;;;;;;;;7.00;7.00;;;;;;;;5230309;28;9642;-73
2023/03/05 05:49:46;;;;;;;;;8.40;8.40;;;;;;;;5217320;28;8796;-74
2023/03/05 05:52:17;;;;;;;;;11.00;11.00;;;;;;;;5213732;28;8792;-74
2023/03/05 05:54:48;;;;;;;;;12.60;12.60;;;;;;;;5230115;28;8823;-73
2023/03/05 05:57:19;;;;;;;;;3.50;3.50;;;;;;;;5230453;28;8800;-73
2023/03/05 05:59:50;;;;;;;;;57.60;40.60;;;;;;;;5214887;28;9016;-73
2023/03/05 06:02:21;;;;;;;;;7.50;7.50;;;;;;;;5236667;28;9007;-73
2023/03/05 06:04:52;;;;;;;;;9.40;9.40;;;;;;;;5246299;28;11559;-73
2023/03/05 06:07:23;;;;;;;;;12.50;12.50;;;;;;;;5238498;28;8907;-73
2023/03/05 06:09:54;;;;;;;;;12.00;12.00;;;;;;;;5229891;28;11529;-73
2023/03/05 06:12:25;;;;;;;;;11.40;11.40;;;;;;;;5241319;28;8828;-72
2023/03/05 06:14:56;;;;;;;;;21.20;20.60;;;;;;;;5213393;28;8817;-73
2023/03/05 06:17:28;;;;;;;;;29.20;28.00;;;;;;;;5216416;28;8855;-79
2023/03/05 06:20:00;;;;;;;;;21.20;21.20;;;;;;;;5224261;28;8780;-82
2023/03/05 06:22:34;;;;;;;;;6.60;6.60;;;;;;;;5218057;28;8847;-80
2023/03/05 06:25:07;;;;;;;;;8.60;8.60;;;;;;;;5213414;28;8825;-81
2023/03/05 06:27:40;;;;;;;;;8.20;8.20;;;;;;;;5199987;28;10771;-80
2023/03/05 06:30:13;;;;;;;;;9.40;9.40;;;;;;;;5250531;28;8798;-81
2023/03/05 06:33:05;;;;;;;;;9.80;9.80;;;;;;;;5238540;28;8920;-80
2023/03/05 06:35:39;;;;;;;;;10.00;10.00;;;;;;;;5244049;28;8804;-82
2023/03/05 06:38:11;;;;;;;;;10.40;10.40;;;;;;;;5205836;28;8822;-81
2023/03/05 06:40:45;;;;;;;;;9.20;9.20;;;;;;;;5214645;28;8810;-79
2023/03/05 06:43:18;;;;;;;;;10.40;10.40;;;;;;;;5247447;28;9637;-80
2023/03/05 06:46:00;;;;;;;;;9.00;8.20;;;;;;;;5237366;28;8796;-81
2023/03/05 06:48:32;;;;;;;;;17.40;16.40;;;;;;;;5207518;28;8807;-80
2023/03/05 06:51:05;;;;;;;;;16.00;16.00;;;;;;;;5233348;28;8779;-80
2023/03/05 06:53:37;;;;;;;;;8.40;8.40;;;;;;;;5232545;28;8806;-80
2023/03/05 06:56:10;;;;;;;;;11.20;11.20;;;;;;;;5219254;28;8778;-80
2023/03/05 06:58:45;;;;;;;;;7.20;7.20;;;;;;;;5220619;28;9620;-79
2023/03/05 07:01:18;;;;;;;;;8.00;8.00;;;;;;;;5215890;28;8852;-82
2023/03/05 07:03:52;;;;;;;;;9.20;9.00;;;;;;;;5199012;28;9445;-81
2023/03/05 07:06:44;;;;;;;;;56.40;47.20;;;;;;;;5209958;28;8919;-79
2023/03/05 07:09:17;;;;;;;;;11.00;11.00;;;;;;;;5199989;28;8820;-83
2023/03/05 07:11:49;;;;;;;;;8.00;8.00;;;;;;;;5199782;28;8780;-79
2023/03/05 07:14:41;;;;;;;;;16.00;15.40;;;;;;;;5220545;28;8792;-78
2023/03/05 07:17:14;;;;;;;;;10.40;10.40;;;;;;;;5237311;28;8792;-78
2023/03/05 07:19:46;;;;;;;;;12.80;12.80;;;;;;;;5214068;28;8836;-79
2023/03/05 07:22:19;;;;;;;;;25.20;24.80;;;;;;;;5197698;28;8799;-81
2023/03/05 07:24:52;;;;;;;;;13.40;12.60;;;;;;;;5199052;28;8805;-83
2023/03/05 07:27:24;;;;;;;;;29.40;29.40;;;;;;;;5200232;28;8785;-80
2023/03/05 07:29:57;;;;;;;;;15.40;15.40;;;;;;;;5196370;28;8934;-78
2023/03/05 07:32:29;;;;;;;;;5.20;5.20;;;;;;;;5213740;28;8812;-79
2023/03/05 07:35:02;;;;;;;;;11.80;11.20;;;;;;;;5197515;28;9602;-80
2023/03/05 07:37:34;;;;;;;;;8.60;8.60;;;;;;;;5230482;28;8776;-80
2023/03/05 07:40:09;;;;;;;;;11.00;11.00;;;;;;;;5213650;28;9527;-77
2023/03/05 07:42:41;;;;;;;;;10.00;9.80;;;;;;;;5196942;28;8800;-79
2023/03/05 07:45:25;;;;;;;;;14.20;13.80;;;;;;;;5215135;28;8812;-71
2023/03/05 07:47:56;;;;;;;;;16.25;16.00;;;;;;;;5230299;28;8811;-71
2023/03/05 07:50:27;;;;;;;;;8.20;8.20;;;;;;;;5227660;28;10723;-71
2023/03/05 07:53:17;;;;;;;;;5.40;5.40;;;;;;;;5226759;28;8801;-71
2023/03/05 07:55:48;;;;;;;;;15.40;14.40;;;;;;;;5229845;28;8781;-71
2023/03/05 07:58:18;;;;;;;;;13.50;13.50;;;;;;;;5247615;28;8803;-72
2023/03/05 08:00:50;;;;;;;;;10.00;10.00;;;;;;;;5229784;28;9501;-72
2023/03/05 08:03:20;;;;;;;;;22.00;22.00;;;;;;;;5227928;28;8801;-72
2023/03/05 08:05:51;;;;;;;;;21.75;21.75;;;;;;;;5228579;28;9153;-71
2023/03/05 08:08:22;;;;;;;;;24.20;22.80;;;;;;;;5229607;28;8805;-71
2023/03/05 08:10:53;;;;;;;;;11.40;11.40;;;;;;;;5229772;28;8776;-71
2023/03/05 08:13:24;;;;;;;;;11.00;11.00;;;;;;;;5229339;28;9519;-70
2023/03/05 08:15:55;;;;;;;;;18.75;18.75;;;;;;;;5229156;28;8773;-72
2023/03/05 08:18:26;;;;;;;;;11.25;11.25;;;;;;;;5242289;28;9567;-74
2023/03/05 08:20:57;;;;;;;;;15.00;15.00;;;;;;;;5237266;28;11477;-69
2023/03/05 08:23:28;;;;;;;;;20.00;18.80;;;;;;;;5245031;28;8848;-70
2023/03/05 08:25:59;;;;;;;;;126.50;97.00;;;;;;;;5229134;28;8797;-71
2023/03/05 08:28:31;;;;;;;;;19.80;19.40;;;;;;;;5236378;28;9530;-72
2023/03/05 08:31:07;;;;;;;;;12.40;11.20;;;;;;;;5231179;28;8807;-71
2023/03/05 08:33:38;;;;;;;;;12.80;12.80;;;;;;;;5246833;28;8809;-71
2023/03/05 08:36:28;;;;;;;;;17.20;17.20;;;;;;;;5246956;28;8771;-71
2023/03/05 08:38:59;;;;;;;;;12.60;12.60;;;;;;;;5228646;28;8866;-71
2023/03/05 08:41:30;;;;;;;;;10.20;10.20;;;;;;;;5247577;28;8769;-71
2023/03/05 08:44:01;;;;;;;;;11.75;11.75;;;;;;;;5241427;28;8840;-71
2023/03/05 08:46:50;;;;;;;;;10.40;9.80;;;;;;;;5255698;28;11468;-71
2023/03/05 08:49:21;;;;;;;;;9.80;9.80;;;;;;;;5264865;28;8814;-71
2023/03/05 08:51:52;;;;;;;;;6.00;6.00;;;;;;;;5267467;28;8779;-71
2023/03/05 08:54:23;;;;;;;;;16.25;15.00;;;;;;;;5245347;28;9906;-70
2023/03/05 08:56:54;;;;;;;;;10.20;10.20;;;;;;;;5236584;28;9076;-71
2023/03/05 08:59:25;;;;;;;;;18.00;18.00;;;;;;;;5229497;28;8808;-71
2023/03/05 09:02:14;;;;;;;;;23.60;20.60;;;;;;;;5229625;28;11460;-68
2023/03/05 09:05:03;;;;;;;;;30.60;30.40;;;;;;;;5262921;28;8945;-70
2023/03/05 09:07:34;;;;;;;;;6.60;6.00;;;;;;;;5261661;28;8800;-72
2023/03/05 09:10:06;;;;;;;;;11.00;11.00;;;;;;;;5211693;28;8785;-73
2023/03/05 09:12:37;;;;;;;;;11.80;11.80;;;;;;;;5228617;28;8784;-73
2023/03/05 09:15:08;;;;;;;;;24.60;24.40;;;;;;;;5227756;28;8805;-72
2023/03/05 09:17:40;;;;;;;;;22.20;22.20;;;;;;;;5249464;28;8816;-72
2023/03/05 09:20:12;;;;;;;;;7.40;7.00;;;;;;;;5244635;28;8788;-72
2023/03/05 09:22:43;;;;;;;;;15.80;15.80;;;;;;;;5229727;28;8828;-73
2023/03/05 09:25:15;;;;;;;;;21.00;19.80;;;;;;;;5229213;28;8808;-72
2023/03/05 09:27:46;;;;;;;;;12.40;12.40;;;;;;;;5245947;28;8796;-70
2023/03/05 09:30:17;;;;;;;;;10.00;10.00;;;;;;;;5245967;28;8773;-70
2023/03/05 09:32:49;;;;;;;;;33.75;26.75;;;;;;;;5220844;28;8931;-72
2023/03/05 09:35:21;;;;;;;;;13.80;13.80;;;;;;;;5195165;28;10777;-72
2023/03/05 09:37:51;;;;;;;;;15.60;15.00;;;;;;;;5246539;28;8778;-72
2023/03/05 09:40:24;;;;;;;;;6.75;6.75;;;;;;;;5246276;28;9563;-71
2023/03/05 09:43:10;;;;;;;;;11.60;11.60;;;;;;;;5230888;28;8955;-71
2023/03/05 09:45:46;;;;;;;;;11.40;11.40;;;;;;;;5174277;28;8791;-72
2023/03/05 09:48:25;;;;;;;;;9.00;9.00;;;;;;;;5241848;28;8800;-73
2023/03/05 09:51:00;;;;;;;;;11.00;11.00;;;;;;;;5195301;28;8765;-72
2023/03/05 09:53:50;;;;;;;;;9.60;8.80;;;;;;;;5227854;28;8784;-72
2023/03/05 09:56:41;;;;;;;;;11.00;11.00;;;;;;;;5245327;28;8773;-73
2023/03/05 09:59:12;;;;;;;;;16.60;16.60;;;;;;;;5228291;28;8784;-70
2023/03/05 10:01:43;;;;;;;;;16.00;16.00;;;;;;;;5238881;28;8803;-72
2023/03/05 10:04:46;;;;;;;;;183.50;139.75;;;;;;;;5242390;28;11545;-70
2023/03/05 10:07:17;;;;;;;;;22.20;21.60;;;;;;;;5194976;28;8897;-70
2023/03/05 10:10:08;;;;;;;;;35.25;34.25;;;;;;;;5245738;28;8776;-70
2023/03/05 10:12:57;;;;;;;;;13.40;13.40;;;;;;;;5227404;28;8769;-71
2023/03/05 10:15:38;;;;;;;;;38.40;33.40;;;;;;;;5227715;28;8809;-71
2023/03/05 10:18:18;;;;;;;;;17.40;17.00;;;;;;;;5211335;28;8793;-70
2023/03/05 10:20:55;;;;;;;;;11.80;11.80;;;;;;;;5245555;28;9480;-71
2023/03/05 10:23:32;;;;;;;;;16.60;16.60;;;;;;;;5245046;28;8871;-71
2023/03/05 10:26:06;;;;;;;;;11.60;11.60;;;;;;;;5246051;28;8773;-71
2023/03/05 10:28:51;;;;;;;;;12.80;12.80;;;;;;;;5249616;28;8953;-71
2023/03/05 10:31:50;;;;;;;;;12.20;12.20;;;;;;;;5249332;28;8796;-71
2023/03/05 10:34:39;;;;;;;;;25.40;25.40;;;;;;;;5231085;28;8860;-71
2023/03/05 10:37:22;;;;;;;;;20.20;18.60;;;;;;;;5230618;28;8827;-71
2023/03/05 10:39:53;;;;;;;;;18.40;18.20;;;;;;;;5214640;28;8804;-71
2023/03/05 10:42:24;;;;;;;;;25.00;25.00;;;;;;;;5249169;28;8796;-72
2023/03/05 10:44:56;;;;;;;;;12.75;11.25;;;;;;;;5231166;28;8842;-71
2023/03/05 10:48:07;;;;;;;;;14.40;13.60;;;;;;;;5233613;28;11375;-71
2023/03/05 10:50:41;;;;;;;;;17.20;16.60;;;;;;;;5248901;28;8804;-71
2023/03/05 10:53:15;;;;;;;;;14.00;14.00;;;;;;;;5231530;28;8776;-72
2023/03/05 10:55:46;;;;;;;;;13.80;13.40;;;;;;;;5248357;28;8817;-71
2023/03/05 10:58:17;;;;;;;;;15.20;15.20;;;;;;;;5230849;28;9514;-71
2023/03/05 11:01:07;;;;;;;;;14.20;14.00;;;;;;;;5248499;28;9504;-70
2023/03/05 11:03:49;;;;;;;;;20.20;20.00;;;;;;;;5230908;28;8812;-70
2023/03/05 11:06:28;;;;;;;;;14.20;14.00;;;;;;;;5230935;28;9624;-70
2023/03/05 11:09:28;;;;;;;;;17.40;17.40;;;;;;;;5245921;28;8878;-71
2023/03/05 11:12:07;;;;;;;;;15.80;14.40;;;;;;;;5231292;28;8792;-71
2023/03/05 11:14:46;;;;;;;;;19.40;17.60;;;;;;;;5237946;28;8855;-69
2023/03/05 11:17:27;;;;;;;;;16.40;16.20;;;;;;;;5222589;28;8823;-70
2023/03/05 11:20:18;;;;;;;;;20.80;20.00;;;;;;;;5239656;28;9511;-73
2023/03/05 11:23:09;;;;;;;;;13.20;12.60;;;;;;;;5199102;28;8821;-72
2023/03/05 11:25:57;;;;;;;;;16.60;16.60;;;;;;;;5226974;28;8804;-73
2023/03/05 11:28:34;;;;;;;;;17.80;16.40;;;;;;;;5213656;28;8840;-71
2023/03/05 11:31:14;;;;;;;;;23.60;22.60;;;;;;;;5230185;28;8837;-72
2023/03/05 11:33:56;;;;;;;;;17.00;16.60;;;;;;;;5213542;28;8931;-72
2023/03/05 11:36:27;;;;;;;;;22.40;20.80;;;;;;;;5238889;28;8828;-72
2023/03/05 11:39:07;;;;;;;;;114.67;90.33;;;;;;;;5220342;28;8870;-72
2023/03/05 11:41:41;;;;;;;;;13.40;13.00;;;;;;;;5221354;28;8786;-72
2023/03/05 11:44:23;;;;;;;;;47.80;43.20;;;;;;;;5205301;28;8838;-72
2023/03/05 11:46:58;;;;;;;;;6.40;6.00;;;;;;;;5236210;28;8781;-73
2023/03/05 11:49:30;;;;;;;;;16.00;13.80;;;;;;;;5222291;28;8779;-71
2023/03/05 11:52:01;;;;;;;;;13.60;13.60;;;;;;;;5221500;28;8807;-73
2023/03/05 11:54:37;;;;;;;;;10.40;10.40;;;;;;;;5222621;28;9643;-73
2023/03/05 11:57:11;;;;;;;;;11.20;11.20;;;;;;;;5222012;28;8804;-72
2023/03/05 11:59:42;;;;;;;;;13.00;13.00;;;;;;;;5218539;28;8796;-72
2023/03/05 12:02:18;;;;;;;;;15.20;15.00;;;;;;;;5219363;28;8971;-71
2023/03/05 12:04:50;;;;;;;;;16.00;15.40;;;;;;;;5226733;28;8817;-71
2023/03/05 12:07:33;;;;;;;;;29.00;26.80;;;;;;;;5254827;28;8932;-71
2023/03/05 12:10:05;;;;;;;;;23.40;22.60;;;;;;;;5241594;28;8808;-72
2023/03/05 12:12:41;;;;;;;;;11.40;11.00;;;;;;;;5258089;28;8904;-71
2023/03/05 12:15:24;;;;;;;;;8.20;8.20;;;;;;;;5234019;28;9537;-69
2023/03/05 12:18:11;;;;;;;;;15.80;15.20;;;;;;;;5228842;28;8796;-69
2023/03/05 12:20:44;;;;;;;;;16.80;16.20;;;;;;;;5237279;28;8783;-70
2023/03/05 12:23:17;;;;;;;;;18.00;18.00;;;;;;;;5250810;28;8825;-69
2023/03/05 12:25:50;;;;;;;;;16.00;15.60;;;;;;;;5233142;28;8911;-70
2023/03/05 12:28:33;;;;;;;;;7.60;7.60;;;;;;;;5229145;28;8793;-69
2023/03/05 12:31:07;;;;;;;;;16.80;16.80;;;;;;;;5229491;28;8772;-69
2023/03/05 12:33:38;;;;;;;;;12.00;12.00;;;;;;;;5232384;28;8811;-69
2023/03/05 12:36:32;;;;;;;;;21.20;21.00;;;;;;;;5231330;28;9521;-69
2023/03/05 12:39:23;;;;;;;;;19.40;18.80;;;;;;;;5245452;28;9060;-69
2023/03/05 12:41:55;;;;;;;;;14.60;14.60;;;;;;;;5227598;28;8810;-70
2023/03/05 12:44:26;;;;;;;;;29.60;28.20;;;;;;;;5212060;28;8828;-69
2023/03/05 12:47:09;;;;;;;;;19.40;19.20;;;;;;;;5212092;28;8836;-70
2023/03/05 12:49:59;;;;;;;;;15.80;15.40;;;;;;;;5247372;28;8800;-69
2023/03/05 12:52:32;;;;;;;;;19.40;19.20;;;;;;;;5213008;28;8813;-70
2023/03/05 12:55:32;;;;;;;;;13.00;12.40;;;;;;;;5228517;28;9492;-70
2023/03/05 12:58:12;;;;;;;;;22.80;22.60;;;;;;;;5211643;28;8793;-70
2023/03/05 13:00:52;;;;;;;;;9.80;9.80;;;;;;;;5212028;28;8788;-70
2023/03/05 13:03:27;;;;;;;;;15.60;15.00;;;;;;;;5228338;28;8927;-71
2023/03/05 13:06:03;;;;;;;;;20.40;19.80;;;;;;;;5230998;28;8794;-70
2023/03/05 13:08:34;;;;;;;;;17.00;17.00;;;;;;;;5210264;28;8803;-69
2023/03/05 13:11:07;;;;;;;;;19.40;19.40;;;;;;;;5248729;28;8798;-70
2023/03/05 13:13:41;;;;;;;;;17.40;17.40;;;;;;;;5267011;28;9522;-69
2023/03/05 13:16:35;;;;;;;;;11.80;8.80;;;;;;;;5240228;28;9545;-70
2023/03/05 13:19:14;;;;;;;;;19.00;19.00;;;;;;;;5227209;28;8862;-69
2023/03/05 13:21:45;;;;;;;;;13.40;13.20;;;;;;;;5228320;28;9523;-70
2023/03/05 13:24:17;;;;;;;;;13.00;12.00;;;;;;;;5209629;28;8833;-70
2023/03/05 13:26:48;;;;;;;;;16.20;15.80;;;;;;;;5226594;28;9515;-70
2023/03/05 13:29:20;;;;;;;;;16.75;16.25;;;;;;;;5255126;28;8803;-69
2023/03/05 13:31:54;;;;;;;;;19.60;19.60;;;;;;;;5265196;28;11469;-70
2023/03/05 13:34:36;;;;;;;;;14.20;14.20;;;;;;;;5228520;28;8863;-72
2023/03/05 13:37:18;;;;;;;;;7.80;7.80;;;;;;;;5209749;28;8776;-70
2023/03/05 13:39:52;;;;;;;;;12.20;12.20;;;;;;;;5193674;28;8777;-69
2023/03/05 13:42:27;;;;;;;;;15.60;15.60;;;;;;;;5239856;28;8808;-71
2023/03/05 13:45:00;;;;;;;;;13.00;13.00;;;;;;;;5246297;28;8836;-73
2023/03/05 13:47:33;;;;;;;;;10.00;8.40;;;;;;;;5227887;28;8854;-71
2023/03/05 13:50:08;;;;;;;;;20.80;18.00;;;;;;;;5249778;28;9602;-71
2023/03/05 13:52:39;;;;;;;;;22.60;22.00;;;;;;;;5213165;28;8819;-70
2023/03/05 13:55:15;;;;;;;;;14.00;14.00;;;;;;;;5245586;28;8800;-69
2023/03/05 13:57:51;;;;;;;;;15.00;15.00;;;;;;;;5209937;28;8793;-70
2023/03/05 14:00:49;;;;;;;;;8.00;8.00;;;;;;;;5254953;28;8842;-69
2023/03/05 14:03:21;;;;;;;;;9.20;9.00;;;;;;;;5225873;28;8789;-69
2023/03/05 14:05:52;;;;;;;;;15.40;15.40;;;;;;;;5248121;28;8769;-71
2023/03/05 14:08:42;;;;;;;;;11.40;11.40;;;;;;;;5231977;28;8769;-69
2023/03/05 14:11:15;;;;;;;;;5.20;4.80;;;;;;;;5211043;28;8783;-71
2023/03/05 14:13:47;;;;;;;;;14.20;13.00;;;;;;;;5194511;28;8783;-71
2023/03/05 14:16:26;;;;;;;;;15.00;14.00;;;;;;;;5194559;28;8836;-72
2023/03/05 14:18:59;;;;;;;;;19.20;14.80;;;;;;;;5194780;28;8803;-71
2023/03/05 14:21:44;;;;;;;;;22.40;22.40;;;;;;;;5239358;28;9513;-71
2023/03/05 14:24:24;;;;;;;;;25.60;25.60;;;;;;;;5258957;28;8856;-72
2023/03/05 14:27:19;;;;;;;;;14.60;14.00;;;;;;;;5229972;28;9525;-71
2023/03/05 14:29:50;;;;;;;;;16.40;16.40;;;;;;;;5252235;28;8917;-70
2023/03/05 14:32:33;;;;;;;;;4.40;4.40;;;;;;;;5249068;28;8797;-71
2023/03/05 14:35:05;;;;;;;;;10.60;10.60;;;;;;;;5198181;28;8811;-71
2023/03/05 14:37:43;;;;;;;;;14.00;13.00;;;;;;;;5214849;28;8784;-70
2023/03/05 14:40:14;;;;;;;;;6.20;6.20;;;;;;;;5214990;28;9511;-71
2023/03/05 14:42:54;;;;;;;;;22.60;22.00;;;;;;;;5221648;28;8823;-70
2023/03/05 14:45:27;;;;;;;;;12.20;12.00;;;;;;;;5230969;28;8816;-70
2023/03/05 14:47:59;;;;;;;;;21.00;19.80;;;;;;;;5249686;28;8775;-70
2023/03/05 14:50:51;;;;;;;;;16.00;16.00;;;;;;;;5249788;28;8776;-72
2023/03/05 14:53:27;;;;;;;;;19.00;16.20;;;;;;;;5231784;28;8793;-71
2023/03/05 14:55:58;;;;;;;;;17.80;17.20;;;;;;;;5230865;28;9568;-70
2023/03/05 14:58:31;;;;;;;;;13.00;11.00;;;;;;;;5227678;28;8792;-73
2023/03/05 15:01:02;;;;;;;;;18.20;17.00;;;;;;;;5212253;28;8812;-75
2023/03/05 15:03:51;;;;;;;;;18.60;16.60;;;;;;;;5231498;28;8832;-71
2023/03/05 15:06:31;;;;;;;;;35.00;33.80;;;;;;;;5222509;28;8833;-72
2023/03/05 15:09:21;;;;;;;;;37.00;35.20;;;;;;;;5267193;28;8802;-71
2023/03/05 15:11:52;;;;;;;;;40.60;37.60;;;;;;;;5235188;28;8820;-72
2023/03/05 15:14:42;;;;;;;;;78.60;63.00;;;;;;;;5246183;28;8954;-71
2023/03/05 15:17:36;;;;;;;;;27.60;26.80;;;;;;;;5211877;28;8819;-72
2023/03/05 15:20:10;;;;;;;;;31.20;31.00;;;;;;;;5205228;28;8836;-72
2023/03/05 15:22:41;;;;;;;;;24.20;23.60;;;;;;;;5225348;28;8830;-73